sensor_id;sensor_type;location;lat;lon;timestamp;temperature;humidity
45409;DHT22;31162;51.076;3.784;2023-02-28T00:01:25;2.20;99.90
45409;DHT22;31162;51.076;3.784;2023-02-28T00:03:51;2.10;99.90
45409;DHT22;31162;51.076;3.784;2023-02-28T00:06:17;2.00;99.90
45409;DHT22;31162;51.076;3.784;2023-02-28T00:08:43;2.10;99.90
45409;DHT22;31162;51.076;3.784;2023-02-28T00:11:11;2.10;99.90
45409;DHT22;31162;51.076;3.784;2023-02-28T00:13:41;2.10;99.90
45409;DHT22;31162;51.076;3.784;2023-02-28T00:16:10;2.10;99.90
45409;DHT22;31162;51.076;3.784;2023-02-28T00:18:36;2.00;99.90
45409;DHT22;31162;51.076;3.784;2023-02-28T00:21:02;2.00;99.90
45409;DHT22;31162;51.076;3.784;2023-02-28T00:23:28;2.10;99.90
45409;DHT22;31162;51.076;3.784;2023-02-28T00:25:54;2.00;99.90
45409;DHT22;31162;51.076;3.784;2023-02-28T00:28:20;2.10;99.90
45409;DHT22;31162;51.076;3.784;2023-02-28T00:30:46;2.10;99.90
45409;DHT22;31162;51.076;3.784;2023-02-28T00:33:12;2.00;99.90
45409;DHT22;31162;51.076;3.784;2023-02-28T00:35:37;2.00;99.90
45409;DHT22;31162;51.076;3.784;2023-02-28T00:38:03;2.00;99.90
45409;DHT22;31162;51.076;3.784;2023-02-28T00:40:29;2.00;99.90
45409;DHT22;31162;51.076;3.784;2023-02-28T00:42:55;2.00;99.90
45409;DHT22;31162;51.076;3.784;2023-02-28T00:45:20;2.10;99.90
45409;DHT22;31162;51.076;3.784;2023-02-28T00:47:46;2.10;99.90
45409;DHT22;31162;51.076;3.784;2023-02-28T00:50:23;2.00;99.90
45409;DHT22;31162;51.076;3.784;2023-02-28T00:52:49;2.00;99.90
45409;DHT22;31162;51.076;3.784;2023-02-28T00:55:15;1.90;99.90
45409;DHT22;31162;51.076;3.784;2023-02-28T00:57:41;1.90;99.90
45409;DHT22;31162;51.076;3.784;2023-02-28T01:00:07;2.00;99.90
45409;DHT22;31162;51.076;3.784;2023-02-28T01:02:33;2.00;99.90
45409;DHT22;31162;51.076;3.784;2023-02-28T01:04:59;2.00;99.90
45409;DHT22;31162;51.076;3.784;2023-02-28T01:07:25;2.00;99.90
45409;DHT22;31162;51.076;3.784;2023-02-28T01:09:50;1.90;99.90
45409;DHT22;31162;51.076;3.784;2023-02-28T01:12:16;1.90;99.90
45409;DHT22;31162;51.076;3.784;2023-02-28T01:14:42;2.00;99.90
45409;DHT22;31162;51.076;3.784;2023-02-28T01:17:08;2.00;99.90
45409;DHT22;31162;51.076;3.784;2023-02-28T01:19:34;1.90;99.90
45409;DHT22;31162;51.076;3.784;2023-02-28T01:22:02;2.00;99.90
45409;DHT22;31162;51.076;3.784;2023-02-28T01:24:28;1.90;99.90
45409;DHT22;31162;51.076;3.784;2023-02-28T01:26:54;1.90;99.90
45409;DHT22;31162;51.076;3.784;2023-02-28T01:29:19;2.00;99.90
45409;DHT22;31162;51.076;3.784;2023-02-28T01:31:45;2.00;99.90
45409;DHT22;31162;51.076;3.784;2023-02-28T01:34:10;1.90;99.90
45409;DHT22;31162;51.076;3.784;2023-02-28T01:36:36;1.80;99.90
45409;DHT22;31162;51.076;3.784;2023-02-28T01:39:02;1.90;99.90
45409;DHT22;31162;51.076;3.784;2023-02-28T01:41:31;1.90;99.90
45409;DHT22;31162;51.076;3.784;2023-02-28T01:46:49;1.80;99.90
45409;DHT22;31162;51.076;3.784;2023-02-28T01:49:16;1.80;99.90
45409;DHT22;31162;51.076;3.784;2023-02-28T01:51:46;1.70;99.90
45409;DHT22;31162;51.076;3.784;2023-02-28T01:54:22;1.70;99.90
45409;DHT22;31162;51.076;3.784;2023-02-28T01:56:58;1.70;99.90
45409;DHT22;31162;51.076;3.784;2023-02-28T01:59:39;1.70;99.90
45409;DHT22;31162;51.076;3.784;2023-02-28T02:02:14;1.70;99.90
45409;DHT22;31162;51.076;3.784;2023-02-28T02:04:50;1.70;99.90
45409;DHT22;31162;51.076;3.784;2023-02-28T02:07:16;1.70;99.90
45409;DHT22;31162;51.076;3.784;2023-02-28T02:09:42;1.70;99.90
45409;DHT22;31162;51.076;3.784;2023-02-28T02:14:59;1.70;99.90
45409;DHT22;31162;51.076;3.784;2023-02-28T02:17:35;1.70;99.90
45409;DHT22;31162;51.076;3.784;2023-02-28T02:29:16;1.80;99.90
45409;DHT22;31162;51.076;3.784;2023-02-28T02:40:22;1.80;99.90
45409;DHT22;31162;51.076;3.784;2023-02-28T02:43:03;1.60;99.90
45409;DHT22;31162;51.076;3.784;2023-02-28T02:45:56;1.40;99.90
45409;DHT22;31162;51.076;3.784;2023-02-28T02:48:28;1.50;99.90
45409;DHT22;31162;51.076;3.784;2023-02-28T02:50:58;1.50;99.90
45409;DHT22;31162;51.076;3.784;2023-02-28T02:53:32;1.50;99.90
45409;DHT22;31162;51.076;3.784;2023-02-28T02:56:01;1.50;99.90
45409;DHT22;31162;51.076;3.784;2023-02-28T02:58:35;1.50;99.90
45409;DHT22;31162;51.076;3.784;2023-02-28T03:01:08;1.40;99.90
45409;DHT22;31162;51.076;3.784;2023-02-28T03:03:35;1.30;99.90
45409;DHT22;31162;51.076;3.784;2023-02-28T03:06:02;1.30;99.90
45409;DHT22;31162;51.076;3.784;2023-02-28T03:08:30;1.20;99.90
45409;DHT22;31162;51.076;3.784;2023-02-28T03:11:01;1.20;99.90
45409;DHT22;31162;51.076;3.784;2023-02-28T03:13:52;1.20;99.90
45409;DHT22;31162;51.076;3.784;2023-02-28T03:33:08;0.80;99.90
45409;DHT22;31162;51.076;3.784;2023-02-28T03:35:38;0.90;99.90
45409;DHT22;31162;51.076;3.784;2023-02-28T03:41:22;1.10;99.90
45409;DHT22;31162;51.076;3.784;2023-02-28T03:43:56;1.20;99.90
45409;DHT22;31162;51.076;3.784;2023-02-28T03:46:24;1.20;99.90
45409;DHT22;31162;51.076;3.784;2023-02-28T03:48:57;1.30;99.90
45409;DHT22;31162;51.076;3.784;2023-02-28T03:51:25;1.40;99.90
45409;DHT22;31162;51.076;3.784;2023-02-28T03:54:05;1.40;99.90
45409;DHT22;31162;51.076;3.784;2023-02-28T03:56:43;1.60;99.90
45409;DHT22;31162;51.076;3.784;2023-02-28T03:59:37;1.60;99.90
45409;DHT22;31162;51.076;3.784;2023-02-28T04:02:05;1.90;99.90
45409;DHT22;31162;51.076;3.784;2023-02-28T04:04:31;1.90;99.90
45409;DHT22;31162;51.076;3.784;2023-02-28T04:07:06;2.00;99.90
45409;DHT22;31162;51.076;3.784;2023-02-28T04:09:32;2.00;99.90
45409;DHT22;31162;51.076;3.784;2023-02-28T04:11:58;2.00;99.90
45409;DHT22;31162;51.076;3.784;2023-02-28T04:14:24;2.10;99.90
45409;DHT22;31162;51.076;3.784;2023-02-28T04:16:49;2.00;99.90
45409;DHT22;31162;51.076;3.784;2023-02-28T04:19:16;2.10;99.90
45409;DHT22;31162;51.076;3.784;2023-02-28T04:21:47;2.20;99.90
45409;DHT22;31162;51.076;3.784;2023-02-28T04:24:15;2.20;99.90
45409;DHT22;31162;51.076;3.784;2023-02-28T04:26:43;2.40;99.90
45409;DHT22;31162;51.076;3.784;2023-02-28T04:29:11;2.50;99.90
45409;DHT22;31162;51.076;3.784;2023-02-28T04:31:37;2.50;99.90
45409;DHT22;31162;51.076;3.784;2023-02-28T04:34:03;2.50;99.90
45409;DHT22;31162;51.076;3.784;2023-02-28T04:36:29;2.50;99.90
45409;DHT22;31162;51.076;3.784;2023-02-28T04:38:54;2.60;99.90
45409;DHT22;31162;51.076;3.784;2023-02-28T04:41:21;2.70;99.90
45409;DHT22;31162;51.076;3.784;2023-02-28T04:43:47;2.80;99.90
45409;DHT22;31162;51.076;3.784;2023-02-28T04:46:12;2.80;99.90
45409;DHT22;31162;51.076;3.784;2023-02-28T04:48:39;2.80;99.90
45409;DHT22;31162;51.076;3.784;2023-02-28T04:51:08;2.90;99.90
45409;DHT22;31162;51.076;3.784;2023-02-28T04:53:35;2.90;99.90
45409;DHT22;31162;51.076;3.784;2023-02-28T04:56:01;3.00;99.90
45409;DHT22;31162;51.076;3.784;2023-02-28T04:58:27;3.00;99.90
45409;DHT22;31162;51.076;3.784;2023-02-28T05:00:54;3.20;99.90
45409;DHT22;31162;51.076;3.784;2023-02-28T05:03:20;3.20;99.90
45409;DHT22;31162;51.076;3.784;2023-02-28T05:05:47;3.20;99.90
45409;DHT22;31162;51.076;3.784;2023-02-28T05:08:13;3.10;99.90
45409;DHT22;31162;51.076;3.784;2023-02-28T05:10:39;3.10;99.90
45409;DHT22;31162;51.076;3.784;2023-02-28T05:13:05;3.10;99.90
45409;DHT22;31162;51.076;3.784;2023-02-28T05:15:31;3.10;99.90
45409;DHT22;31162;51.076;3.784;2023-02-28T05:17:56;3.10;99.90
45409;DHT22;31162;51.076;3.784;2023-02-28T05:20:22;3.10;99.90
45409;DHT22;31162;51.076;3.784;2023-02-28T05:22:47;3.20;99.90
45409;DHT22;31162;51.076;3.784;2023-02-28T05:25:20;3.30;99.90
45409;DHT22;31162;51.076;3.784;2023-02-28T05:27:47;3.30;99.90
45409;DHT22;31162;51.076;3.784;2023-02-28T05:30:12;3.40;99.90
45409;DHT22;31162;51.076;3.784;2023-02-28T05:32:39;3.30;99.90
45409;DHT22;31162;51.076;3.784;2023-02-28T05:35:08;3.30;99.90
45409;DHT22;31162;51.076;3.784;2023-02-28T05:37:34;3.40;99.90
45409;DHT22;31162;51.076;3.784;2023-02-28T05:40:00;3.40;99.90
45409;DHT22;31162;51.076;3.784;2023-02-28T05:42:26;3.30;99.90
45409;DHT22;31162;51.076;3.784;2023-02-28T05:44:52;3.30;99.90
45409;DHT22;31162;51.076;3.784;2023-02-28T05:47:17;3.30;99.90
45409;DHT22;31162;51.076;3.784;2023-02-28T05:49:43;3.30;99.90
45409;DHT22;31162;51.076;3.784;2023-02-28T05:52:09;3.40;99.90
45409;DHT22;31162;51.076;3.784;2023-02-28T05:54:34;3.50;99.90
45409;DHT22;31162;51.076;3.784;2023-02-28T05:57:00;3.40;99.90
45409;DHT22;31162;51.076;3.784;2023-02-28T05:59:25;3.40;99.90
45409;DHT22;31162;51.076;3.784;2023-02-28T06:01:51;3.40;99.90
45409;DHT22;31162;51.076;3.784;2023-02-28T06:04:19;3.40;99.90
45409;DHT22;31162;51.076;3.784;2023-02-28T06:06:46;3.30;99.90
45409;DHT22;31162;51.076;3.784;2023-02-28T06:09:12;3.40;99.90
45409;DHT22;31162;51.076;3.784;2023-02-28T06:11:38;3.40;99.90
45409;DHT22;31162;51.076;3.784;2023-02-28T06:14:04;3.30;99.90
45409;DHT22;31162;51.076;3.784;2023-02-28T06:16:32;3.30;99.90
45409;DHT22;31162;51.076;3.784;2023-02-28T06:18:59;3.30;99.90
45409;DHT22;31162;51.076;3.784;2023-02-28T06:21:26;3.30;99.90
45409;DHT22;31162;51.076;3.784;2023-02-28T06:23:53;3.30;99.90
45409;DHT22;31162;51.076;3.784;2023-02-28T06:26:19;3.20;99.90
45409;DHT22;31162;51.076;3.784;2023-02-28T06:28:45;3.30;99.90
45409;DHT22;31162;51.076;3.784;2023-02-28T06:31:13;3.30;99.90
45409;DHT22;31162;51.076;3.784;2023-02-28T06:33:39;3.20;99.90
45409;DHT22;31162;51.076;3.784;2023-02-28T06:36:06;3.30;99.90
45409;DHT22;31162;51.076;3.784;2023-02-28T06:38:33;3.30;99.90
45409;DHT22;31162;51.076;3.784;2023-02-28T06:41:00;3.30;99.90
45409;DHT22;31162;51.076;3.784;2023-02-28T06:43:29;3.40;99.90
45409;DHT22;31162;51.076;3.784;2023-02-28T06:45:56;3.40;99.90
45409;DHT22;31162;51.076;3.784;2023-02-28T06:48:23;3.40;99.90
45409;DHT22;31162;51.076;3.784;2023-02-28T06:50:49;3.40;99.90
45409;DHT22;31162;51.076;3.784;2023-02-28T06:53:15;3.50;99.90
45409;DHT22;31162;51.076;3.784;2023-02-28T06:55:41;3.40;99.90
45409;DHT22;31162;51.076;3.784;2023-02-28T06:58:07;3.60;99.90
45409;DHT22;31162;51.076;3.784;2023-02-28T07:00:42;3.60;99.90
45409;DHT22;31162;51.076;3.784;2023-02-28T07:03:07;3.60;99.90
45409;DHT22;31162;51.076;3.784;2023-02-28T07:05:35;3.70;99.90
45409;DHT22;31162;51.076;3.784;2023-02-28T07:08:03;3.60;99.90
45409;DHT22;31162;51.076;3.784;2023-02-28T07:10:29;3.70;99.90
45409;DHT22;31162;51.076;3.784;2023-02-28T07:12:55;3.70;99.90
45409;DHT22;31162;51.076;3.784;2023-02-28T07:15:20;3.70;99.90
45409;DHT22;31162;51.076;3.784;2023-02-28T07:17:46;3.80;99.90
45409;DHT22;31162;51.076;3.784;2023-02-28T07:20:12;3.80;99.90
45409;DHT22;31162;51.076;3.784;2023-02-28T07:22:38;3.80;99.90
45409;DHT22;31162;51.076;3.784;2023-02-28T07:25:04;3.90;99.90
45409;DHT22;31162;51.076;3.784;2023-02-28T07:27:30;3.80;99.90
45409;DHT22;31162;51.076;3.784;2023-02-28T07:29:56;3.90;99.90
45409;DHT22;31162;51.076;3.784;2023-02-28T07:32:22;4.00;99.90
45409;DHT22;31162;51.076;3.784;2023-02-28T07:34:48;4.00;99.90
45409;DHT22;31162;51.076;3.784;2023-02-28T07:37:14;4.10;99.90
45409;DHT22;31162;51.076;3.784;2023-02-28T07:39:40;4.20;99.90
45409;DHT22;31162;51.076;3.784;2023-02-28T07:42:07;4.30;99.90
45409;DHT22;31162;51.076;3.784;2023-02-28T07:44:36;4.30;99.90
45409;DHT22;31162;51.076;3.784;2023-02-28T07:47:06;4.30;99.90
45409;DHT22;31162;51.076;3.784;2023-02-28T07:49:33;4.40;99.90
45409;DHT22;31162;51.076;3.784;2023-02-28T07:51:59;4.40;99.90
45409;DHT22;31162;51.076;3.784;2023-02-28T07:54:24;4.50;99.90
45409;DHT22;31162;51.076;3.784;2023-02-28T07:56:50;4.70;99.90
45409;DHT22;31162;51.076;3.784;2023-02-28T07:59:16;4.80;99.90
45409;DHT22;31162;51.076;3.784;2023-02-28T08:01:41;4.90;99.90
45409;DHT22;31162;51.076;3.784;2023-02-28T08:04:09;5.10;99.90
45409;DHT22;31162;51.076;3.784;2023-02-28T08:06:34;5.30;99.90
45409;DHT22;31162;51.076;3.784;2023-02-28T08:09:00;5.30;99.90
45409;DHT22;31162;51.076;3.784;2023-02-28T08:11:26;5.40;99.90
45409;DHT22;31162;51.076;3.784;2023-02-28T08:13:51;5.80;99.90
45409;DHT22;31162;51.076;3.784;2023-02-28T08:16:17;6.00;99.90
45409;DHT22;31162;51.076;3.784;2023-02-28T08:18:51;6.20;99.90
45409;DHT22;31162;51.076;3.784;2023-02-28T08:21:17;6.10;99.90
45409;DHT22;31162;51.076;3.784;2023-02-28T08:23:43;6.20;99.90
45409;DHT22;31162;51.076;3.784;2023-02-28T08:26:08;6.40;99.90
45409;DHT22;31162;51.076;3.784;2023-02-28T08:28:34;6.50;99.90
45409;DHT22;31162;51.076;3.784;2023-02-28T08:31:00;6.50;99.90
45409;DHT22;31162;51.076;3.784;2023-02-28T08:33:27;6.40;99.90
45409;DHT22;31162;51.076;3.784;2023-02-28T08:35:54;6.40;99.90
45409;DHT22;31162;51.076;3.784;2023-02-28T08:38:20;6.40;99.90
45409;DHT22;31162;51.076;3.784;2023-02-28T08:40:46;6.50;99.90
45409;DHT22;31162;51.076;3.784;2023-02-28T08:43:11;6.30;99.90
45409;DHT22;31162;51.076;3.784;2023-02-28T08:45:37;6.10;99.90
45409;DHT22;31162;51.076;3.784;2023-02-28T08:48:03;5.90;99.90
45409;DHT22;31162;51.076;3.784;2023-02-28T08:50:29;5.80;99.90
45409;DHT22;31162;51.076;3.784;2023-02-28T08:52:54;5.70;99.90
45409;DHT22;31162;51.076;3.784;2023-02-28T08:55:20;5.80;99.90
45409;DHT22;31162;51.076;3.784;2023-02-28T08:57:46;5.80;99.90
45409;DHT22;31162;51.076;3.784;2023-02-28T09:00:12;5.80;99.90
45409;DHT22;31162;51.076;3.784;2023-02-28T09:02:39;5.80;99.90
45409;DHT22;31162;51.076;3.784;2023-02-28T09:05:06;5.80;99.90
45409;DHT22;31162;51.076;3.784;2023-02-28T09:07:31;5.70;99.90
45409;DHT22;31162;51.076;3.784;2023-02-28T09:09:57;5.50;99.90
45409;DHT22;31162;51.076;3.784;2023-02-28T09:12:27;5.40;99.90
45409;DHT22;31162;51.076;3.784;2023-02-28T09:14:53;5.40;99.90
45409;DHT22;31162;51.076;3.784;2023-02-28T09:17:19;5.50;99.90
45409;DHT22;31162;51.076;3.784;2023-02-28T09:19:47;5.50;99.90
45409;DHT22;31162;51.076;3.784;2023-02-28T09:22:13;5.50;99.90
45409;DHT22;31162;51.076;3.784;2023-02-28T09:24:39;5.60;99.90
45409;DHT22;31162;51.076;3.784;2023-02-28T09:27:05;5.50;99.90
45409;DHT22;31162;51.076;3.784;2023-02-28T09:29:32;5.70;99.90
45409;DHT22;31162;51.076;3.784;2023-02-28T09:31:59;5.80;99.90
45409;DHT22;31162;51.076;3.784;2023-02-28T09:34:26;5.70;99.90
45409;DHT22;31162;51.076;3.784;2023-02-28T09:36:52;5.60;99.90
45409;DHT22;31162;51.076;3.784;2023-02-28T09:39:23;5.40;99.90
45409;DHT22;31162;51.076;3.784;2023-02-28T09:41:51;5.40;99.90
45409;DHT22;31162;51.076;3.784;2023-02-28T09:44:38;5.50;99.90
45409;DHT22;31162;51.076;3.784;2023-02-28T09:49:50;5.70;99.90
45409;DHT22;31162;51.076;3.784;2023-02-28T09:52:23;5.60;99.90
45409;DHT22;31162;51.076;3.784;2023-02-28T09:54:52;5.60;99.90
45409;DHT22;31162;51.076;3.784;2023-02-28T09:57:29;5.60;99.90
45409;DHT22;31162;51.076;3.784;2023-02-28T10:05:08;5.90;99.90
45409;DHT22;31162;51.076;3.784;2023-02-28T10:08:18;5.90;99.90
45409;DHT22;31162;51.076;3.784;2023-02-28T10:10:47;5.90;99.90
45409;DHT22;31162;51.076;3.784;2023-02-28T10:13:32;6.00;99.90
45409;DHT22;31162;51.076;3.784;2023-02-28T10:16:03;6.00;99.90
45409;DHT22;31162;51.076;3.784;2023-02-28T10:18:47;6.20;99.90
45409;DHT22;31162;51.076;3.784;2023-02-28T10:21:26;6.40;99.90
45409;DHT22;31162;51.076;3.784;2023-02-28T10:26:45;6.20;99.90
45409;DHT22;31162;51.076;3.784;2023-02-28T10:29:12;6.30;99.90
45409;DHT22;31162;51.076;3.784;2023-02-28T10:31:39;6.40;99.90
45409;DHT22;31162;51.076;3.784;2023-02-28T10:34:05;6.60;99.90
45409;DHT22;31162;51.076;3.784;2023-02-28T10:36:32;6.80;99.90
45409;DHT22;31162;51.076;3.784;2023-02-28T10:38:58;6.60;99.90
45409;DHT22;31162;51.076;3.784;2023-02-28T10:41:30;6.70;99.90
45409;DHT22;31162;51.076;3.784;2023-02-28T10:44:21;6.90;99.90
45409;DHT22;31162;51.076;3.784;2023-02-28T10:46:48;7.20;99.90
45409;DHT22;31162;51.076;3.784;2023-02-28T10:49:24;7.50;99.90
45409;DHT22;31162;51.076;3.784;2023-02-28T10:51:56;7.70;99.90
45409;DHT22;31162;51.076;3.784;2023-02-28T10:54:33;8.00;99.90
45409;DHT22;31162;51.076;3.784;2023-02-28T10:57:20;8.50;98.60
45409;DHT22;31162;51.076;3.784;2023-02-28T10:59:49;8.90;97.50
45409;DHT22;31162;51.076;3.784;2023-02-28T11:02:35;8.90;96.70
45409;DHT22;31162;51.076;3.784;2023-02-28T11:05:26;9.60;95.90
45409;DHT22;31162;51.076;3.784;2023-02-28T11:07:57;10.10;95.20
45409;DHT22;31162;51.076;3.784;2023-02-28T11:10:28;11.10;94.90
45409;DHT22;31162;51.076;3.784;2023-02-28T11:12:56;11.20;93.00
45409;DHT22;31162;51.076;3.784;2023-02-28T11:15:26;11.20;92.00
45409;DHT22;31162;51.076;3.784;2023-02-28T11:20:39;10.60;92.90
45409;DHT22;31162;51.076;3.784;2023-02-28T11:23:11;10.40;92.00
45409;DHT22;31162;51.076;3.784;2023-02-28T11:25:38;10.20;92.40
45409;DHT22;31162;51.076;3.784;2023-02-28T11:28:06;10.50;91.90
45409;DHT22;31162;51.076;3.784;2023-02-28T11:33:40;10.50;92.60
45409;DHT22;31162;51.076;3.784;2023-02-28T11:36:16;11.10;92.30
45409;DHT22;31162;51.076;3.784;2023-02-28T11:38:43;11.30;91.60
45409;DHT22;31162;51.076;3.784;2023-02-28T11:52:21;10.80;91.40
45409;DHT22;31162;51.076;3.784;2023-02-28T11:55:42;11.90;90.80
45409;DHT22;31162;51.076;3.784;2023-02-28T12:00:31;10.70;90.30
45409;DHT22;31162;51.076;3.784;2023-02-28T12:05:46;10.50;89.40
45409;DHT22;31162;51.076;3.784;2023-02-28T12:11:25;10.00;90.60
45409;DHT22;31162;51.076;3.784;2023-02-28T12:16:41;10.20;89.00
45409;DHT22;31162;51.076;3.784;2023-02-28T12:27:58;10.20;86.60
45409;DHT22;31162;51.076;3.784;2023-02-28T12:30:30;8.90;87.90
45409;DHT22;31162;51.076;3.784;2023-02-28T12:33:09;8.20;90.10
45409;DHT22;31162;51.076;3.784;2023-02-28T12:35:42;8.00;89.90
45409;DHT22;31162;51.076;3.784;2023-02-28T12:38:25;7.60;90.20
45409;DHT22;31162;51.076;3.784;2023-02-28T12:41:04;7.50;90.50
45409;DHT22;31162;51.076;3.784;2023-02-28T12:43:37;7.20;91.00
45409;DHT22;31162;51.076;3.784;2023-02-28T12:49:23;7.00;90.70
45409;DHT22;31162;51.076;3.784;2023-02-28T12:51:50;7.30;91.40
45409;DHT22;31162;51.076;3.784;2023-02-28T12:54:24;7.10;90.40
45409;DHT22;31162;51.076;3.784;2023-02-28T13:10:47;6.80;90.20
45409;DHT22;31162;51.076;3.784;2023-02-28T13:13:24;7.00;90.20
45409;DHT22;31162;51.076;3.784;2023-02-28T13:18:39;7.10;88.60
45409;DHT22;31162;51.076;3.784;2023-02-28T13:21:26;7.10;87.10
45409;DHT22;31162;51.076;3.784;2023-02-28T13:34:27;7.20;86.30
45409;DHT22;31162;51.076;3.784;2023-02-28T13:40:07;7.20;87.00
45409;DHT22;31162;51.076;3.784;2023-02-28T13:42:49;7.10;87.90
45409;DHT22;31162;51.076;3.784;2023-02-28T13:45:28;7.10;86.00
45409;DHT22;31162;51.076;3.784;2023-02-28T13:47:59;7.00;86.90
45409;DHT22;31162;51.076;3.784;2023-02-28T13:53:06;7.10;87.20
45409;DHT22;31162;51.076;3.784;2023-02-28T14:06:53;6.90;88.80
45409;DHT22;31162;51.076;3.784;2023-02-28T14:09:33;7.00;88.80
45409;DHT22;31162;51.076;3.784;2023-02-28T14:18:27;6.60;89.20
45409;DHT22;31162;51.076;3.784;2023-02-28T14:21:03;6.60;89.80
45409;DHT22;31162;51.076;3.784;2023-02-28T14:29:46;6.90;90.70
45409;DHT22;31162;51.076;3.784;2023-02-28T14:32:41;6.80;89.50
45409;DHT22;31162;51.076;3.784;2023-02-28T14:35:18;6.80;90.10
45409;DHT22;31162;51.076;3.784;2023-02-28T14:37:46;6.90;89.00
45409;DHT22;31162;51.076;3.784;2023-02-28T14:40:33;6.80;88.80
45409;DHT22;31162;51.076;3.784;2023-02-28T14:43:03;6.60;89.00
45409;DHT22;31162;51.076;3.784;2023-02-28T14:45:32;6.40;89.10
45409;DHT22;31162;51.076;3.784;2023-02-28T14:47:58;6.50;90.20
45409;DHT22;31162;51.076;3.784;2023-02-28T14:50:34;6.50;90.50
45409;DHT22;31162;51.076;3.784;2023-02-28T14:53:01;6.60;89.10
45409;DHT22;31162;51.076;3.784;2023-02-28T14:55:36;6.70;90.00
45409;DHT22;31162;51.076;3.784;2023-02-28T14:58:04;6.60;90.30
45409;DHT22;31162;51.076;3.784;2023-02-28T15:00:53;6.40;90.20
45409;DHT22;31162;51.076;3.784;2023-02-28T15:03:21;6.40;90.90
45409;DHT22;31162;51.076;3.784;2023-02-28T15:08:19;6.50;90.20
45409;DHT22;31162;51.076;3.784;2023-02-28T15:10:59;6.50;90.00
45409;DHT22;31162;51.076;3.784;2023-02-28T15:19:08;6.60;90.80
45409;DHT22;31162;51.076;3.784;2023-02-28T15:21:40;6.60;90.20
45409;DHT22;31162;51.076;3.784;2023-02-28T15:24:12;6.60;90.30
45409;DHT22;31162;51.076;3.784;2023-02-28T15:26:42;6.60;90.80
45409;DHT22;31162;51.076;3.784;2023-02-28T15:29:15;6.50;90.90
45409;DHT22;31162;51.076;3.784;2023-02-28T15:32:01;6.50;90.60
45409;DHT22;31162;51.076;3.784;2023-02-28T15:36:53;6.20;90.60
45409;DHT22;31162;51.076;3.784;2023-02-28T15:39:27;6.10;91.30
45409;DHT22;31162;51.076;3.784;2023-02-28T15:42:11;6.10;91.50
45409;DHT22;31162;51.076;3.784;2023-02-28T15:44:37;6.10;91.80
45409;DHT22;31162;51.076;3.784;2023-02-28T15:47:05;6.10;91.70
45409;DHT22;31162;51.076;3.784;2023-02-28T15:49:46;6.20;90.90
45409;DHT22;31162;51.076;3.784;2023-02-28T15:52:16;6.20;91.60
45409;DHT22;31162;51.076;3.784;2023-02-28T15:54:43;6.20;91.50
45409;DHT22;31162;51.076;3.784;2023-02-28T15:57:39;6.30;91.20
45409;DHT22;31162;51.076;3.784;2023-02-28T16:00:12;6.10;92.00
45409;DHT22;31162;51.076;3.784;2023-02-28T16:02:39;6.10;92.10
45409;DHT22;31162;51.076;3.784;2023-02-28T16:07:34;6.10;91.90
45409;DHT22;31162;51.076;3.784;2023-02-28T16:10:01;6.20;92.10
45409;DHT22;31162;51.076;3.784;2023-02-28T16:12:31;6.20;92.00
45409;DHT22;31162;51.076;3.784;2023-02-28T16:15:00;6.10;91.90
45409;DHT22;31162;51.076;3.784;2023-02-28T16:17:31;6.10;92.20
45409;DHT22;31162;51.076;3.784;2023-02-28T16:19:58;6.10;92.60
45409;DHT22;31162;51.076;3.784;2023-02-28T16:22:24;6.10;92.60
45409;DHT22;31162;51.076;3.784;2023-02-28T16:24:50;6.10;92.90
45409;DHT22;31162;51.076;3.784;2023-02-28T16:27:25;5.90;92.80
45409;DHT22;31162;51.076;3.784;2023-02-28T16:29:52;5.70;93.00
45409;DHT22;31162;51.076;3.784;2023-02-28T16:32:18;5.60;92.70
45409;DHT22;31162;51.076;3.784;2023-02-28T16:34:44;5.50;93.30
45409;DHT22;31162;51.076;3.784;2023-02-28T16:37:15;5.40;93.10
45409;DHT22;31162;51.076;3.784;2023-02-28T16:39:42;5.40;93.40
45409;DHT22;31162;51.076;3.784;2023-02-28T16:42:15;5.40;93.90
45409;DHT22;31162;51.076;3.784;2023-02-28T16:44:41;5.40;94.00
45409;DHT22;31162;51.076;3.784;2023-02-28T16:47:10;5.50;93.70
45409;DHT22;31162;51.076;3.784;2023-02-28T16:49:36;5.50;93.60
45409;DHT22;31162;51.076;3.784;2023-02-28T16:52:02;5.50;94.10
45409;DHT22;31162;51.076;3.784;2023-02-28T16:54:27;5.40;94.10
45409;DHT22;31162;51.076;3.784;2023-02-28T16:56:53;5.40;94.10
45409;DHT22;31162;51.076;3.784;2023-02-28T16:59:24;5.40;94.20
45409;DHT22;31162;51.076;3.784;2023-02-28T17:01:50;5.40;94.20
45409;DHT22;31162;51.076;3.784;2023-02-28T17:04:17;5.30;94.50
45409;DHT22;31162;51.076;3.784;2023-02-28T17:06:43;5.30;94.80
45409;DHT22;31162;51.076;3.784;2023-02-28T17:09:16;5.20;94.90
45409;DHT22;31162;51.076;3.784;2023-02-28T17:11:41;5.10;95.20
45409;DHT22;31162;51.076;3.784;2023-02-28T17:14:07;5.10;94.80
45409;DHT22;31162;51.076;3.784;2023-02-28T17:16:34;5.10;95.40
45409;DHT22;31162;51.076;3.784;2023-02-28T17:19:04;4.90;95.60
45409;DHT22;31162;51.076;3.784;2023-02-28T17:21:32;4.90;96.20
45409;DHT22;31162;51.076;3.784;2023-02-28T17:23:58;4.90;96.20
45409;DHT22;31162;51.076;3.784;2023-02-28T17:26:24;4.80;95.90
45409;DHT22;31162;51.076;3.784;2023-02-28T17:28:51;4.80;96.60
45409;DHT22;31162;51.076;3.784;2023-02-28T17:31:18;4.70;97.00
45409;DHT22;31162;51.076;3.784;2023-02-28T17:33:44;4.60;97.20
45409;DHT22;31162;51.076;3.784;2023-02-28T17:36:15;4.60;97.10
45409;DHT22;31162;51.076;3.784;2023-02-28T17:38:41;4.50;97.10
45409;DHT22;31162;51.076;3.784;2023-02-28T17:41:10;4.40;97.10
45409;DHT22;31162;51.076;3.784;2023-02-28T17:43:36;4.40;97.10
45409;DHT22;31162;51.076;3.784;2023-02-28T17:46:01;4.20;97.30
45409;DHT22;31162;51.076;3.784;2023-02-28T17:48:27;4.20;97.60
45409;DHT22;31162;51.076;3.784;2023-02-28T17:50:54;4.10;97.80
45409;DHT22;31162;51.076;3.784;2023-02-28T17:53:19;4.10;98.10
45409;DHT22;31162;51.076;3.784;2023-02-28T17:55:49;4.10;98.20
45409;DHT22;31162;51.076;3.784;2023-02-28T17:58:14;4.20;97.90
45409;DHT22;31162;51.076;3.784;2023-02-28T18:00:40;4.30;97.80
45409;DHT22;31162;51.076;3.784;2023-02-28T18:03:06;4.20;98.00
45409;DHT22;31162;51.076;3.784;2023-02-28T18:05:32;4.00;98.50
45409;DHT22;31162;51.076;3.784;2023-02-28T18:07:58;3.80;98.80
45409;DHT22;31162;51.076;3.784;2023-02-28T18:10:24;3.90;99.20
45409;DHT22;31162;51.076;3.784;2023-02-28T18:12:51;4.00;99.00
45409;DHT22;31162;51.076;3.784;2023-02-28T18:15:18;4.10;99.20
45409;DHT22;31162;51.076;3.784;2023-02-28T18:17:46;4.20;99.10
45409;DHT22;31162;51.076;3.784;2023-02-28T18:20:12;4.20;99.70
45409;DHT22;31162;51.076;3.784;2023-02-28T18:22:39;4.20;99.50
45409;DHT22;31162;51.076;3.784;2023-02-28T18:25:06;4.30;99.10
45409;DHT22;31162;51.076;3.784;2023-02-28T18:27:34;4.20;99.20
45409;DHT22;31162;51.076;3.784;2023-02-28T18:30:01;4.20;99.30
45409;DHT22;31162;51.076;3.784;2023-02-28T18:32:28;4.10;99.50
45409;DHT22;31162;51.076;3.784;2023-02-28T18:34:54;4.20;99.50
45409;DHT22;31162;51.076;3.784;2023-02-28T18:37:19;4.00;99.60
45409;DHT22;31162;51.076;3.784;2023-02-28T18:39:45;4.00;99.70
45409;DHT22;31162;51.076;3.784;2023-02-28T18:42:11;3.80;99.90